sensor_id;sensor_type;location;lat;lon;timestamp;P1;durP1;ratioP1;P2;durP2;ratioP2
73898;SDS011;62234;50.892;12.724;2023-02-28T00:01:38;7.57;;;2.83;;
73898;SDS011;62234;50.892;12.724;2023-02-28T00:04:10;4.18;;;2.78;;
73898;SDS011;62234;50.892;12.724;2023-02-28T00:06:53;6.53;;;2.17;;
73898;SDS011;62234;50.892;12.724;2023-02-28T00:09:29;5.82;;;2.65;;
73898;SDS011;62234;50.892;12.724;2023-02-28T00:11:58;6.45;;;2.92;;
73898;SDS011;62234;50.892;12.724;2023-02-28T00:14:24;4.28;;;2.53;;
73898;SDS011;62234;50.892;12.724;2023-02-28T00:16:50;4.07;;;2.70;;
73898;SDS011;62234;50.892;12.724;2023-02-28T00:19:16;4.57;;;2.70;;
73898;SDS011;62234;50.892;12.724;2023-02-28T00:21:45;4.30;;;2.65;;
73898;SDS011;62234;50.892;12.724;2023-02-28T00:24:14;5.50;;;2.97;;
73898;SDS011;62234;50.892;12.724;2023-02-28T00:26:43;4.07;;;2.70;;
73898;SDS011;62234;50.892;12.724;2023-02-28T00:29:17;5.22;;;2.90;;
73898;SDS011;62234;50.892;12.724;2023-02-28T00:31:48;5.80;;;3.17;;
73898;SDS011;62234;50.892;12.724;2023-02-28T00:34:17;5.72;;;2.72;;
73898;SDS011;62234;50.892;12.724;2023-02-28T00:36:45;4.57;;;2.85;;
73898;SDS011;62234;50.892;12.724;2023-02-28T00:39:13;3.35;;;2.17;;
73898;SDS011;62234;50.892;12.724;2023-02-28T00:41:39;2.55;;;2.10;;
73898;SDS011;62234;50.892;12.724;2023-02-28T00:44:05;3.92;;;2.42;;
73898;SDS011;62234;50.892;12.724;2023-02-28T00:46:31;4.28;;;2.47;;
73898;SDS011;62234;50.892;12.724;2023-02-28T00:48:57;5.88;;;2.65;;
73898;SDS011;62234;50.892;12.724;2023-02-28T00:51:23;4.93;;;2.70;;
73898;SDS011;62234;50.892;12.724;2023-02-28T00:53:49;5.47;;;2.50;;
73898;SDS011;62234;50.892;12.724;2023-02-28T00:56:18;4.32;;;2.38;;
73898;SDS011;62234;50.892;12.724;2023-02-28T00:58:44;6.65;;;2.70;;
73898;SDS011;62234;50.892;12.724;2023-02-28T01:01:10;4.30;;;2.15;;
73898;SDS011;62234;50.892;12.724;2023-02-28T01:03:36;4.28;;;2.45;;
73898;SDS011;62234;50.892;12.724;2023-02-28T01:06:03;3.35;;;2.63;;
73898;SDS011;62234;50.892;12.724;2023-02-28T01:08:29;4.70;;;2.58;;
73898;SDS011;62234;50.892;12.724;2023-02-28T01:10:55;4.90;;;2.42;;
73898;SDS011;62234;50.892;12.724;2023-02-28T01:13:21;6.07;;;3.00;;
73898;SDS011;62234;50.892;12.724;2023-02-28T01:15:52;3.92;;;2.38;;
73898;SDS011;62234;50.892;12.724;2023-02-28T01:18:19;4.85;;;2.55;;
73898;SDS011;62234;50.892;12.724;2023-02-28T01:20:45;3.80;;;2.10;;
73898;SDS011;62234;50.892;12.724;2023-02-28T01:23:13;4.05;;;2.55;;
73898;SDS011;62234;50.892;12.724;2023-02-28T01:25:40;6.13;;;2.55;;
73898;SDS011;62234;50.892;12.724;2023-02-28T01:28:05;5.82;;;3.47;;
73898;SDS011;62234;50.892;12.724;2023-02-28T01:30:32;5.00;;;2.83;;
73898;SDS011;62234;50.892;12.724;2023-02-28T01:33:00;6.07;;;3.00;;
73898;SDS011;62234;50.892;12.724;2023-02-28T01:35:26;5.75;;;3.03;;
73898;SDS011;62234;50.892;12.724;2023-02-28T01:37:52;5.22;;;2.47;;
73898;SDS011;62234;50.892;12.724;2023-02-28T01:40:27;4.63;;;2.97;;
73898;SDS011;62234;50.892;12.724;2023-02-28T01:45:54;4.20;;;3.00;;
73898;SDS011;62234;50.892;12.724;2023-02-28T01:48:31;5.22;;;2.90;;
73898;SDS011;62234;50.892;12.724;2023-02-28T01:51:02;3.97;;;2.80;;
73898;SDS011;62234;50.892;12.724;2023-02-28T01:53:31;4.18;;;2.50;;
73898;SDS011;62234;50.892;12.724;2023-02-28T01:55:58;4.80;;;2.78;;
73898;SDS011;62234;50.892;12.724;2023-02-28T01:58:24;3.78;;;2.30;;
73898;SDS011;62234;50.892;12.724;2023-02-28T02:00:50;5.05;;;2.47;;
73898;SDS011;62234;50.892;12.724;2023-02-28T02:03:16;7.32;;;2.60;;
73898;SDS011;62234;50.892;12.724;2023-02-28T02:05:46;3.95;;;2.33;;
73898;SDS011;62234;50.892;12.724;2023-02-28T02:08:15;8.07;;;2.25;;
73898;SDS011;62234;50.892;12.724;2023-02-28T02:10:46;4.43;;;2.08;;
73898;SDS011;62234;50.892;12.724;2023-02-28T02:20:51;3.88;;;2.65;;
73898;SDS011;62234;50.892;12.724;2023-02-28T02:25:56;4.63;;;2.65;;
73898;SDS011;62234;50.892;12.724;2023-02-28T02:34:03;5.38;;;3.00;;
73898;SDS011;62234;50.892;12.724;2023-02-28T02:36:38;7.22;;;3.78;;
73898;SDS011;62234;50.892;12.724;2023-02-28T02:39:07;5.07;;;2.95;;
73898;SDS011;62234;50.892;12.724;2023-02-28T02:41:45;4.63;;;2.95;;
73898;SDS011;62234;50.892;12.724;2023-02-28T02:44:15;6.20;;;2.58;;
73898;SDS011;62234;50.892;12.724;2023-02-28T02:46:44;6.47;;;2.58;;
73898;SDS011;62234;50.892;12.724;2023-02-28T02:49:21;4.07;;;2.38;;
73898;SDS011;62234;50.892;12.724;2023-02-28T02:51:48;3.88;;;2.72;;
73898;SDS011;62234;50.892;12.724;2023-02-28T02:54:17;7.03;;;3.20;;
73898;SDS011;62234;50.892;12.724;2023-02-28T02:56:55;7.03;;;2.65;;
73898;SDS011;62234;50.892;12.724;2023-02-28T02:59:23;3.63;;;2.83;;
73898;SDS011;62234;50.892;12.724;2023-02-28T03:01:54;4.03;;;3.22;;
73898;SDS011;62234;50.892;12.724;2023-02-28T03:04:24;6.38;;;3.25;;
73898;SDS011;62234;50.892;12.724;2023-02-28T03:06:55;4.30;;;2.75;;
73898;SDS011;62234;50.892;12.724;2023-02-28T03:09:22;11.55;;;3.38;;
73898;SDS011;62234;50.892;12.724;2023-02-28T03:11:48;6.65;;;3.17;;
73898;SDS011;62234;50.892;12.724;2023-02-28T03:17:01;3.95;;;2.92;;
73898;SDS011;62234;50.892;12.724;2023-02-28T03:19:32;5.47;;;2.97;;
73898;SDS011;62234;50.892;12.724;2023-02-28T03:28:03;9.90;;;3.90;;
73898;SDS011;62234;50.892;12.724;2023-02-28T03:33:05;6.45;;;3.53;;
73898;SDS011;62234;50.892;12.724;2023-02-28T03:35:34;4.82;;;3.63;;
73898;SDS011;62234;50.892;12.724;2023-02-28T03:38:03;7.20;;;3.47;;
73898;SDS011;62234;50.892;12.724;2023-02-28T03:40:31;9.82;;;4.40;;
73898;SDS011;62234;50.892;12.724;2023-02-28T03:43:07;7.10;;;3.63;;
73898;SDS011;62234;50.892;12.724;2023-02-28T03:45:36;6.75;;;3.92;;
73898;SDS011;62234;50.892;12.724;2023-02-28T03:48:12;6.75;;;3.83;;
73898;SDS011;62234;50.892;12.724;2023-02-28T03:50:40;8.65;;;3.70;;
73898;SDS011;62234;50.892;12.724;2023-02-28T03:53:08;6.68;;;3.67;;
73898;SDS011;62234;50.892;12.724;2023-02-28T03:55:48;7.97;;;4.00;;
73898;SDS011;62234;50.892;12.724;2023-02-28T04:01:12;6.45;;;3.97;;
73898;SDS011;62234;50.892;12.724;2023-02-28T04:03:49;8.80;;;4.70;;
73898;SDS011;62234;50.892;12.724;2023-02-28T04:06:16;8.98;;;4.43;;
73898;SDS011;62234;50.892;12.724;2023-02-28T04:08:43;7.50;;;4.55;;
73898;SDS011;62234;50.892;12.724;2023-02-28T04:11:16;6.93;;;4.15;;
73898;SDS011;62234;50.892;12.724;2023-02-28T04:13:43;9.57;;;4.30;;
73898;SDS011;62234;50.892;12.724;2023-02-28T04:16:09;9.43;;;4.47;;
73898;SDS011;62234;50.892;12.724;2023-02-28T04:18:37;7.18;;;4.60;;
73898;SDS011;62234;50.892;12.724;2023-02-28T04:21:03;8.18;;;4.80;;
73898;SDS011;62234;50.892;12.724;2023-02-28T04:23:30;10.68;;;5.20;;
73898;SDS011;62234;50.892;12.724;2023-02-28T04:25:56;7.68;;;4.60;;
73898;SDS011;62234;50.892;12.724;2023-02-28T04:28:25;9.02;;;4.95;;
73898;SDS011;62234;50.892;12.724;2023-02-28T04:30:58;9.23;;;5.00;;
73898;SDS011;62234;50.892;12.724;2023-02-28T04:33:24;9.77;;;4.78;;
73898;SDS011;62234;50.892;12.724;2023-02-28T04:36:00;8.57;;;5.13;;
73898;SDS011;62234;50.892;12.724;2023-02-28T04:38:27;8.63;;;5.10;;
73898;SDS011;62234;50.892;12.724;2023-02-28T04:40:53;9.68;;;5.05;;
73898;SDS011;62234;50.892;12.724;2023-02-28T04:43:19;10.75;;;5.78;;
73898;SDS011;62234;50.892;12.724;2023-02-28T04:45:45;10.77;;;5.55;;
73898;SDS011;62234;50.892;12.724;2023-02-28T04:48:11;8.55;;;5.25;;
73898;SDS011;62234;50.892;12.724;2023-02-28T04:50:37;9.65;;;5.05;;
73898;SDS011;62234;50.892;12.724;2023-02-28T04:53:03;8.32;;;4.72;;
73898;SDS011;62234;50.892;12.724;2023-02-28T04:55:29;8.25;;;4.95;;
73898;SDS011;62234;50.892;12.724;2023-02-28T04:57:55;12.93;;;5.93;;
73898;SDS011;62234;50.892;12.724;2023-02-28T05:00:20;12.43;;;6.28;;
73898;SDS011;62234;50.892;12.724;2023-02-28T05:02:46;11.57;;;4.72;;
73898;SDS011;62234;50.892;12.724;2023-02-28T05:05:12;17.48;;;5.32;;
73898;SDS011;62234;50.892;12.724;2023-02-28T05:07:43;9.50;;;6.03;;
73898;SDS011;62234;50.892;12.724;2023-02-28T05:10:09;10.95;;;5.60;;
73898;SDS011;62234;50.892;12.724;2023-02-28T05:12:35;10.48;;;5.10;;
73898;SDS011;62234;50.892;12.724;2023-02-28T05:15:01;8.43;;;4.95;;
73898;SDS011;62234;50.892;12.724;2023-02-28T05:17:28;13.30;;;6.20;;
73898;SDS011;62234;50.892;12.724;2023-02-28T05:20:02;8.80;;;4.60;;
73898;SDS011;62234;50.892;12.724;2023-02-28T05:22:49;11.35;;;6.10;;
73898;SDS011;62234;50.892;12.724;2023-02-28T05:25:19;12.68;;;5.95;;
73898;SDS011;62234;50.892;12.724;2023-02-28T05:27:46;11.73;;;5.60;;
73898;SDS011;62234;50.892;12.724;2023-02-28T05:30:12;12.57;;;5.30;;
73898;SDS011;62234;50.892;12.724;2023-02-28T05:32:38;13.95;;;6.68;;
73898;SDS011;62234;50.892;12.724;2023-02-28T05:35:07;12.43;;;5.88;;
73898;SDS011;62234;50.892;12.724;2023-02-28T05:37:36;8.90;;;4.60;;
73898;SDS011;62234;50.892;12.724;2023-02-28T05:40:02;12.07;;;5.78;;
73898;SDS011;62234;50.892;12.724;2023-02-28T05:42:31;11.52;;;6.18;;
73898;SDS011;62234;50.892;12.724;2023-02-28T05:44:57;15.77;;;6.82;;
73898;SDS011;62234;50.892;12.724;2023-02-28T05:47:27;10.88;;;5.97;;
73898;SDS011;62234;50.892;12.724;2023-02-28T05:49:53;10.23;;;4.97;;
73898;SDS011;62234;50.892;12.724;2023-02-28T05:52:18;9.88;;;5.47;;
73898;SDS011;62234;50.892;12.724;2023-02-28T05:54:45;10.13;;;5.90;;
73898;SDS011;62234;50.892;12.724;2023-02-28T05:57:12;14.60;;;6.15;;
73898;SDS011;62234;50.892;12.724;2023-02-28T05:59:37;11.60;;;6.15;;
73898;SDS011;62234;50.892;12.724;2023-02-28T06:02:05;13.45;;;5.63;;
73898;SDS011;62234;50.892;12.724;2023-02-28T06:04:31;11.40;;;6.32;;
73898;SDS011;62234;50.892;12.724;2023-02-28T06:06:57;14.32;;;5.70;;
73898;SDS011;62234;50.892;12.724;2023-02-28T06:09:23;9.35;;;5.35;;
73898;SDS011;62234;50.892;12.724;2023-02-28T06:11:49;11.13;;;5.68;;
73898;SDS011;62234;50.892;12.724;2023-02-28T06:14:16;11.82;;;5.93;;
73898;SDS011;62234;50.892;12.724;2023-02-28T06:16:42;11.93;;;5.25;;
73898;SDS011;62234;50.892;12.724;2023-02-28T06:19:08;11.63;;;5.55;;
73898;SDS011;62234;50.892;12.724;2023-02-28T06:21:34;14.27;;;6.25;;
73898;SDS011;62234;50.892;12.724;2023-02-28T06:24:01;9.82;;;5.25;;
73898;SDS011;62234;50.892;12.724;2023-02-28T06:26:27;11.45;;;6.10;;
73898;SDS011;62234;50.892;12.724;2023-02-28T06:28:53;11.55;;;6.15;;
73898;SDS011;62234;50.892;12.724;2023-02-28T06:31:20;11.75;;;6.22;;
73898;SDS011;62234;50.892;12.724;2023-02-28T06:33:47;14.30;;;6.55;;
73898;SDS011;62234;50.892;12.724;2023-02-28T06:36:13;12.38;;;6.00;;
73898;SDS011;62234;50.892;12.724;2023-02-28T06:38:39;13.13;;;6.03;;
73898;SDS011;62234;50.892;12.724;2023-02-28T06:41:06;11.27;;;5.95;;
73898;SDS011;62234;50.892;12.724;2023-02-28T06:43:35;13.75;;;6.10;;
73898;SDS011;62234;50.892;12.724;2023-02-28T06:46:01;12.27;;;5.97;;
73898;SDS011;62234;50.892;12.724;2023-02-28T06:48:28;13.02;;;5.90;;
73898;SDS011;62234;50.892;12.724;2023-02-28T06:51:07;12.55;;;5.63;;
73898;SDS011;62234;50.892;12.724;2023-02-28T06:53:34;10.52;;;5.13;;
73898;SDS011;62234;50.892;12.724;2023-02-28T06:56:03;9.98;;;5.15;;
73898;SDS011;62234;50.892;12.724;2023-02-28T06:58:30;10.38;;;5.63;;
73898;SDS011;62234;50.892;12.724;2023-02-28T07:00:56;11.60;;;6.10;;
73898;SDS011;62234;50.892;12.724;2023-02-28T07:03:22;12.80;;;6.43;;
73898;SDS011;62234;50.892;12.724;2023-02-28T07:05:48;13.05;;;6.03;;
73898;SDS011;62234;50.892;12.724;2023-02-28T07:08:14;14.90;;;6.10;;
73898;SDS011;62234;50.892;12.724;2023-02-28T07:10:41;13.45;;;6.78;;
73898;SDS011;62234;50.892;12.724;2023-02-28T07:13:07;12.13;;;5.80;;
73898;SDS011;62234;50.892;12.724;2023-02-28T07:15:33;12.32;;;6.00;;
73898;SDS011;62234;50.892;12.724;2023-02-28T07:17:59;13.30;;;5.93;;
73898;SDS011;62234;50.892;12.724;2023-02-28T07:20:26;11.35;;;6.50;;
73898;SDS011;62234;50.892;12.724;2023-02-28T07:22:52;11.65;;;5.03;;
73898;SDS011;62234;50.892;12.724;2023-02-28T07:25:25;11.32;;;5.10;;
73898;SDS011;62234;50.892;12.724;2023-02-28T07:27:51;14.02;;;6.65;;
73898;SDS011;62234;50.892;12.724;2023-02-28T07:30:17;11.05;;;5.55;;
73898;SDS011;62234;50.892;12.724;2023-02-28T07:32:46;10.43;;;5.10;;
73898;SDS011;62234;50.892;12.724;2023-02-28T07:35:15;9.88;;;5.22;;
73898;SDS011;62234;50.892;12.724;2023-02-28T07:37:41;8.88;;;5.45;;
73898;SDS011;62234;50.892;12.724;2023-02-28T07:40:09;9.35;;;4.75;;
73898;SDS011;62234;50.892;12.724;2023-02-28T07:42:39;11.02;;;6.40;;
73898;SDS011;62234;50.892;12.724;2023-02-28T07:45:06;11.70;;;5.90;;
73898;SDS011;62234;50.892;12.724;2023-02-28T07:47:32;9.65;;;4.80;;
73898;SDS011;62234;50.892;12.724;2023-02-28T07:49:58;9.55;;;4.88;;
73898;SDS011;62234;50.892;12.724;2023-02-28T07:52:24;13.00;;;6.18;;
73898;SDS011;62234;50.892;12.724;2023-02-28T07:54:50;13.13;;;5.85;;
73898;SDS011;62234;50.892;12.724;2023-02-28T07:57:16;11.73;;;5.35;;
73898;SDS011;62234;50.892;12.724;2023-02-28T07:59:42;11.55;;;5.68;;
73898;SDS011;62234;50.892;12.724;2023-02-28T08:02:15;15.27;;;5.93;;
73898;SDS011;62234;50.892;12.724;2023-02-28T08:04:41;9.15;;;4.20;;
73898;SDS011;62234;50.892;12.724;2023-02-28T08:07:07;9.98;;;5.13;;
73898;SDS011;62234;50.892;12.724;2023-02-28T08:09:34;9.73;;;4.88;;
73898;SDS011;62234;50.892;12.724;2023-02-28T08:12:14;9.45;;;4.90;;
73898;SDS011;62234;50.892;12.724;2023-02-28T08:14:40;8.60;;;4.65;;
73898;SDS011;62234;50.892;12.724;2023-02-28T08:17:05;10.40;;;4.45;;
73898;SDS011;62234;50.892;12.724;2023-02-28T08:19:32;11.50;;;4.65;;
73898;SDS011;62234;50.892;12.724;2023-02-28T08:21:58;13.68;;;4.88;;
73898;SDS011;62234;50.892;12.724;2023-02-28T08:24:24;10.38;;;4.95;;
73898;SDS011;62234;50.892;12.724;2023-02-28T08:26:50;8.65;;;4.13;;
73898;SDS011;62234;50.892;12.724;2023-02-28T08:29:16;12.40;;;4.75;;
73898;SDS011;62234;50.892;12.724;2023-02-28T08:31:42;9.35;;;4.55;;
73898;SDS011;62234;50.892;12.724;2023-02-28T08:34:09;10.02;;;4.22;;
73898;SDS011;62234;50.892;12.724;2023-02-28T08:36:35;11.13;;;4.70;;
73898;SDS011;62234;50.892;12.724;2023-02-28T08:39:01;8.63;;;3.53;;
73898;SDS011;62234;50.892;12.724;2023-02-28T08:41:27;7.60;;;4.40;;
73898;SDS011;62234;50.892;12.724;2023-02-28T08:43:53;9.63;;;4.53;;
73898;SDS011;62234;50.892;12.724;2023-02-28T08:46:19;8.43;;;4.25;;
73898;SDS011;62234;50.892;12.724;2023-02-28T08:48:46;10.30;;;4.70;;
73898;SDS011;62234;50.892;12.724;2023-02-28T08:51:16;10.57;;;4.63;;
73898;SDS011;62234;50.892;12.724;2023-02-28T08:57:11;7.13;;;3.65;;
73898;SDS011;62234;50.892;12.724;2023-02-28T08:59:37;9.02;;;4.30;;
73898;SDS011;62234;50.892;12.724;2023-02-28T09:02:03;10.00;;;3.85;;
73898;SDS011;62234;50.892;12.724;2023-02-28T09:04:29;12.43;;;3.90;;
73898;SDS011;62234;50.892;12.724;2023-02-28T09:06:57;9.18;;;4.82;;
73898;SDS011;62234;50.892;12.724;2023-02-28T09:09:22;8.93;;;3.67;;
73898;SDS011;62234;50.892;12.724;2023-02-28T09:11:48;8.02;;;4.25;;
73898;SDS011;62234;50.892;12.724;2023-02-28T09:14:14;7.88;;;3.80;;
73898;SDS011;62234;50.892;12.724;2023-02-28T09:16:42;9.45;;;4.20;;
73898;SDS011;62234;50.892;12.724;2023-02-28T09:19:10;7.22;;;3.85;;
73898;SDS011;62234;50.892;12.724;2023-02-28T09:21:36;7.28;;;4.07;;
73898;SDS011;62234;50.892;12.724;2023-02-28T09:24:02;10.82;;;4.50;;
73898;SDS011;62234;50.892;12.724;2023-02-28T09:26:28;11.18;;;4.57;;
73898;SDS011;62234;50.892;12.724;2023-02-28T09:28:54;12.10;;;4.15;;
73898;SDS011;62234;50.892;12.724;2023-02-28T09:31:25;12.02;;;4.82;;
73898;SDS011;62234;50.892;12.724;2023-02-28T09:33:53;7.93;;;4.55;;
73898;SDS011;62234;50.892;12.724;2023-02-28T09:36:22;7.35;;;4.20;;
73898;SDS011;62234;50.892;12.724;2023-02-28T09:38:51;8.43;;;3.47;;
73898;SDS011;62234;50.892;12.724;2023-02-28T09:41:22;6.82;;;3.53;;
73898;SDS011;62234;50.892;12.724;2023-02-28T09:43:54;10.98;;;3.95;;
73898;SDS011;62234;50.892;12.724;2023-02-28T09:46:25;6.80;;;3.20;;
73898;SDS011;62234;50.892;12.724;2023-02-28T09:48:52;4.03;;;2.78;;
73898;SDS011;62234;50.892;12.724;2023-02-28T09:51:27;7.20;;;3.65;;
73898;SDS011;62234;50.892;12.724;2023-02-28T09:53:55;7.07;;;3.58;;
73898;SDS011;62234;50.892;12.724;2023-02-28T09:56:24;7.25;;;4.00;;
73898;SDS011;62234;50.892;12.724;2023-02-28T10:01:21;7.70;;;3.65;;
73898;SDS011;62234;50.892;12.724;2023-02-28T10:06:21;6.72;;;3.50;;
73898;SDS011;62234;50.892;12.724;2023-02-28T10:11:16;6.25;;;3.35;;
73898;SDS011;62234;50.892;12.724;2023-02-28T10:16:34;4.97;;;3.10;;
73898;SDS011;62234;50.892;12.724;2023-02-28T10:19:06;4.18;;;2.88;;
73898;SDS011;62234;50.892;12.724;2023-02-28T10:21:37;6.43;;;2.90;;
73898;SDS011;62234;50.892;12.724;2023-02-28T10:26:49;6.47;;;3.15;;
73898;SDS011;62234;50.892;12.724;2023-02-28T10:29:17;6.00;;;3.35;;
73898;SDS011;62234;50.892;12.724;2023-02-28T10:31:46;6.97;;;2.97;;
73898;SDS011;62234;50.892;12.724;2023-02-28T10:34:12;6.05;;;3.03;;
73898;SDS011;62234;50.892;12.724;2023-02-28T10:36:39;7.45;;;3.47;;
73898;SDS011;62234;50.892;12.724;2023-02-28T10:41:52;6.88;;;3.75;;
73898;SDS011;62234;50.892;12.724;2023-02-28T10:44:21;6.25;;;3.30;;
73898;SDS011;62234;50.892;12.724;2023-02-28T10:46:47;7.15;;;3.10;;
73898;SDS011;62234;50.892;12.724;2023-02-28T10:49:17;5.95;;;3.30;;
73898;SDS011;62234;50.892;12.724;2023-02-28T10:51:52;6.78;;;3.85;;
73898;SDS011;62234;50.892;12.724;2023-02-28T10:54:24;6.85;;;3.72;;
73898;SDS011;62234;50.892;12.724;2023-02-28T10:57:11;8.35;;;3.30;;
73898;SDS011;62234;50.892;12.724;2023-02-28T10:59:40;10.95;;;4.88;;
73898;SDS011;62234;50.892;12.724;2023-02-28T11:04:51;6.82;;;3.35;;
73898;SDS011;62234;50.892;12.724;2023-02-28T11:07:19;6.82;;;4.13;;
73898;SDS011;62234;50.892;12.724;2023-02-28T11:09:46;7.25;;;3.45;;
73898;SDS011;62234;50.892;12.724;2023-02-28T11:12:31;5.32;;;2.80;;
73898;SDS011;62234;50.892;12.724;2023-02-28T11:15:00;7.55;;;3.38;;
73898;SDS011;62234;50.892;12.724;2023-02-28T11:17:28;7.53;;;3.85;;
73898;SDS011;62234;50.892;12.724;2023-02-28T11:20:03;9.65;;;3.65;;
73898;SDS011;62234;50.892;12.724;2023-02-28T11:22:32;5.55;;;3.30;;
73898;SDS011;62234;50.892;12.724;2023-02-28T11:25:02;7.85;;;3.85;;
73898;SDS011;62234;50.892;12.724;2023-02-28T11:29:59;7.40;;;3.72;;
73898;SDS011;62234;50.892;12.724;2023-02-28T11:32:26;7.57;;;4.03;;
73898;SDS011;62234;50.892;12.724;2023-02-28T11:37:28;7.95;;;4.10;;
73898;SDS011;62234;50.892;12.724;2023-02-28T11:39:56;8.25;;;3.92;;
73898;SDS011;62234;50.892;12.724;2023-02-28T11:42:26;8.40;;;3.95;;
73898;SDS011;62234;50.892;12.724;2023-02-28T11:47:38;7.75;;;3.85;;
73898;SDS011;62234;50.892;12.724;2023-02-28T12:03:30;6.45;;;4.00;;
73898;SDS011;62234;50.892;12.724;2023-02-28T12:06:12;6.82;;;3.75;;
73898;SDS011;62234;50.892;12.724;2023-02-28T12:08:43;8.45;;;4.07;;
73898;SDS011;62234;50.892;12.724;2023-02-28T12:11:16;7.55;;;3.60;;
73898;SDS011;62234;50.892;12.724;2023-02-28T12:13:47;5.68;;;3.28;;
73898;SDS011;62234;50.892;12.724;2023-02-28T12:21:41;5.20;;;2.25;;
73898;SDS011;62234;50.892;12.724;2023-02-28T12:26:41;8.18;;;3.72;;
73898;SDS011;62234;50.892;12.724;2023-02-28T12:29:17;5.30;;;3.22;;
73898;SDS011;62234;50.892;12.724;2023-02-28T12:31:55;5.65;;;2.88;;
73898;SDS011;62234;50.892;12.724;2023-02-28T12:34:33;5.07;;;3.00;;
73898;SDS011;62234;50.892;12.724;2023-02-28T12:39:29;8.90;;;4.20;;
73898;SDS011;62234;50.892;12.724;2023-02-28T12:41:59;7.93;;;3.92;;
73898;SDS011;62234;50.892;12.724;2023-02-28T12:44:30;7.47;;;3.72;;
73898;SDS011;62234;50.892;12.724;2023-02-28T12:46:58;7.90;;;3.92;;
73898;SDS011;62234;50.892;12.724;2023-02-28T12:51:52;6.18;;;3.33;;
73898;SDS011;62234;50.892;12.724;2023-02-28T12:54:21;5.90;;;3.60;;
73898;SDS011;62234;50.892;12.724;2023-02-28T12:59:41;5.72;;;3.47;;
73898;SDS011;62234;50.892;12.724;2023-02-28T13:02:21;8.55;;;4.13;;
73898;SDS011;62234;50.892;12.724;2023-02-28T13:07:52;6.20;;;3.08;;
73898;SDS011;62234;50.892;12.724;2023-02-28T13:10:19;7.05;;;3.80;;
73898;SDS011;62234;50.892;12.724;2023-02-28T13:12:50;4.85;;;2.65;;
73898;SDS011;62234;50.892;12.724;2023-02-28T13:15:21;7.35;;;3.58;;
73898;SDS011;62234;50.892;12.724;2023-02-28T13:17:49;6.30;;;3.75;;
73898;SDS011;62234;50.892;12.724;2023-02-28T13:20:20;6.55;;;3.45;;
73898;SDS011;62234;50.892;12.724;2023-02-28T13:27:52;4.85;;;2.83;;
73898;SDS011;62234;50.892;12.724;2023-02-28T13:35:45;6.85;;;3.88;;
73898;SDS011;62234;50.892;12.724;2023-02-28T13:38:16;7.75;;;3.13;;
73898;SDS011;62234;50.892;12.724;2023-02-28T13:40:42;3.75;;;2.60;;
73898;SDS011;62234;50.892;12.724;2023-02-28T13:46:12;9.73;;;4.05;;
73898;SDS011;62234;50.892;12.724;2023-02-28T13:48:38;8.07;;;4.30;;
73898;SDS011;62234;50.892;12.724;2023-02-28T13:57:21;5.85;;;3.40;;
73898;SDS011;62234;50.892;12.724;2023-02-28T14:04:53;8.45;;;4.38;;
73898;SDS011;62234;50.892;12.724;2023-02-28T14:07:26;9.48;;;4.70;;
73898;SDS011;62234;50.892;12.724;2023-02-28T14:09:57;9.60;;;4.22;;
73898;SDS011;62234;50.892;12.724;2023-02-28T14:12:51;8.30;;;4.22;;
73898;SDS011;62234;50.892;12.724;2023-02-28T14:18:02;7.90;;;3.88;;
73898;SDS011;62234;50.892;12.724;2023-02-28T14:20:29;11.10;;;4.75;;
73898;SDS011;62234;50.892;12.724;2023-02-28T14:23:06;7.45;;;4.43;;
73898;SDS011;62234;50.892;12.724;2023-02-28T14:25:47;6.28;;;4.90;;
73898;SDS011;62234;50.892;12.724;2023-02-28T14:28:20;5.30;;;3.72;;
73898;SDS011;62234;50.892;12.724;2023-02-28T14:30:52;9.65;;;4.60;;
73898;SDS011;62234;50.892;12.724;2023-02-28T14:33:23;7.35;;;4.20;;
73898;SDS011;62234;50.892;12.724;2023-02-28T14:38:41;9.50;;;4.20;;
73898;SDS011;62234;50.892;12.724;2023-02-28T14:41:16;6.85;;;4.20;;
73898;SDS011;62234;50.892;12.724;2023-02-28T14:43:54;9.07;;;4.53;;
73898;SDS011;62234;50.892;12.724;2023-02-28T14:46:21;7.93;;;4.55;;
73898;SDS011;62234;50.892;12.724;2023-02-28T14:48:48;13.50;;;4.75;;
73898;SDS011;62234;50.892;12.724;2023-02-28T14:51:18;7.85;;;4.55;;
73898;SDS011;62234;50.892;12.724;2023-02-28T14:53:46;7.80;;;4.60;;
73898;SDS011;62234;50.892;12.724;2023-02-28T14:56:24;8.57;;;5.00;;
73898;SDS011;62234;50.892;12.724;2023-02-28T14:58:54;8.10;;;4.95;;
73898;SDS011;62234;50.892;12.724;2023-02-28T15:01:21;6.43;;;4.00;;
73898;SDS011;62234;50.892;12.724;2023-02-28T15:03:47;11.43;;;5.10;;
73898;SDS011;62234;50.892;12.724;2023-02-28T15:06:14;8.57;;;3.75;;
73898;SDS011;62234;50.892;12.724;2023-02-28T15:08:42;8.70;;;5.00;;
73898;SDS011;62234;50.892;12.724;2023-02-28T15:11:08;9.35;;;4.97;;
73898;SDS011;62234;50.892;12.724;2023-02-28T15:13:42;8.38;;;4.00;;
73898;SDS011;62234;50.892;12.724;2023-02-28T15:16:13;10.38;;;5.25;;
73898;SDS011;62234;50.892;12.724;2023-02-28T15:18:43;8.40;;;4.47;;
73898;SDS011;62234;50.892;12.724;2023-02-28T15:21:17;11.45;;;4.55;;
73898;SDS011;62234;50.892;12.724;2023-02-28T15:23:45;9.85;;;5.03;;
73898;SDS011;62234;50.892;12.724;2023-02-28T15:26:14;9.75;;;4.65;;
73898;SDS011;62234;50.892;12.724;2023-02-28T15:28:41;10.85;;;4.53;;
73898;SDS011;62234;50.892;12.724;2023-02-28T15:31:20;7.70;;;4.50;;
73898;SDS011;62234;50.892;12.724;2023-02-28T15:33:55;7.45;;;3.85;;
73898;SDS011;62234;50.892;12.724;2023-02-28T15:36:23;8.27;;;4.40;;
73898;SDS011;62234;50.892;12.724;2023-02-28T15:38:52;6.30;;;3.85;;
73898;SDS011;62234;50.892;12.724;2023-02-28T15:41:35;11.30;;;5.25;;
73898;SDS011;62234;50.892;12.724;2023-02-28T15:47:02;7.95;;;5.25;;
73898;SDS011;62234;50.892;12.724;2023-02-28T15:49:29;7.20;;;4.35;;
73898;SDS011;62234;50.892;12.724;2023-02-28T15:51:56;8.77;;;4.22;;
73898;SDS011;62234;50.892;12.724;2023-02-28T15:54:24;7.72;;;4.70;;
73898;SDS011;62234;50.892;12.724;2023-02-28T15:56:53;7.15;;;4.18;;
73898;SDS011;62234;50.892;12.724;2023-02-28T15:59:27;11.50;;;5.15;;
73898;SDS011;62234;50.892;12.724;2023-02-28T16:04:35;8.00;;;4.78;;
73898;SDS011;62234;50.892;12.724;2023-02-28T16:07:02;13.02;;;5.55;;
73898;SDS011;62234;50.892;12.724;2023-02-28T16:09:29;7.82;;;4.97;;
73898;SDS011;62234;50.892;12.724;2023-02-28T16:11:56;11.75;;;5.82;;
73898;SDS011;62234;50.892;12.724;2023-02-28T16:14:27;11.00;;;4.72;;
73898;SDS011;62234;50.892;12.724;2023-02-28T16:16:55;11.85;;;5.68;;
73898;SDS011;62234;50.892;12.724;2023-02-28T16:19:22;10.55;;;5.18;;
73898;SDS011;62234;50.892;12.724;2023-02-28T16:21:48;11.48;;;5.00;;
73898;SDS011;62234;50.892;12.724;2023-02-28T16:24:14;10.43;;;5.72;;
73898;SDS011;62234;50.892;12.724;2023-02-28T16:26:40;15.27;;;6.60;;
73898;SDS011;62234;50.892;12.724;2023-02-28T16:29:08;13.25;;;6.22;;
73898;SDS011;62234;50.892;12.724;2023-02-28T16:31:35;13.57;;;6.32;;
73898;SDS011;62234;50.892;12.724;2023-02-28T16:34:02;14.27;;;6.25;;
73898;SDS011;62234;50.892;12.724;2023-02-28T16:36:28;15.43;;;6.78;;
73898;SDS011;62234;50.892;12.724;2023-02-28T16:38:54;17.20;;;6.72;;
73898;SDS011;62234;50.892;12.724;2023-02-28T16:41:21;12.65;;;5.45;;
73898;SDS011;62234;50.892;12.724;2023-02-28T16:43:48;11.52;;;6.18;;
73898;SDS011;62234;50.892;12.724;2023-02-28T16:46:14;10.43;;;5.15;;
73898;SDS011;62234;50.892;12.724;2023-02-28T16:48:41;16.55;;;6.50;;
73898;SDS011;62234;50.892;12.724;2023-02-28T16:51:14;13.40;;;5.90;;